createdAt,value
2018-02-22T00:01:28.872Z,75.00
2018-02-22T00:04:01.356Z,74.90
2018-02-22T00:06:33.849Z,75.00
2018-02-22T00:09:06.298Z,74.90
2018-02-22T00:11:38.769Z,75.00
2018-02-22T00:14:11.224Z,75.00
2018-02-22T01:47:38.100Z,72.80
2018-02-22T01:50:10.557Z,72.90
2018-02-22T01:52:43.044Z,72.90
2018-02-22T01:55:15.521Z,72.90
2018-02-22T01:57:47.976Z,73.10
2018-02-22T03:31:15.125Z,72.50
2018-02-22T03:33:47.581Z,72.60
2018-02-22T03:36:20.080Z,72.70
2018-02-22T03:38:52.539Z,72.60
2018-02-22T03:41:25.021Z,72.70
2018-02-22T03:43:57.484Z,72.90
2018-02-22T05:33:04.521Z,74.20
2018-02-22T05:35:37.006Z,74.20
2018-02-22T05:38:09.468Z,74.40
2018-02-22T05:40:41.944Z,74.30
2018-02-22T05:43:14.437Z,74.50
2018-02-22T05:45:46.899Z,74.50
2018-02-22T05:48:19.375Z,74.80
2018-02-22T05:50:51.836Z,74.90
2018-02-22T05:53:24.382Z,74.80
2018-02-22T05:55:56.840Z,74.50
2018-02-22T05:58:29.337Z,75.00
2018-02-22T06:01:01.795Z,74.10
2018-02-22T06:03:34.280Z,74.10
2018-02-22T06:06:06.752Z,74.10
2018-02-22T06:08:39.244Z,74.90
2018-02-22T06:11:11.736Z,74.10
2018-02-22T06:13:44.222Z,74.00
2018-02-22T06:16:16.688Z,74.80
2018-02-22T06:18:49.175Z,74.00
2018-02-22T06:21:21.632Z,73.70
2018-02-22T06:23:54.135Z,73.70
2018-02-22T06:26:26.589Z,73.70
2018-02-22T06:28:59.061Z,73.60
2018-02-22T06:31:31.531Z,73.60
2018-02-22T06:34:04.011Z,73.50
2018-02-22T06:36:36.477Z,73.40
2018-02-22T06:39:08.952Z,73.30
2018-02-22T06:41:41.439Z,73.30
2018-02-22T06:44:13.932Z,73.40
2018-02-22T06:46:46.388Z,73.40
2018-02-22T06:49:18.868Z,73.40
2018-02-22T06:51:51.360Z,73.40
2018-02-22T06:54:23.825Z,73.30
2018-02-22T06:56:56.314Z,73.60
2018-02-22T06:59:28.767Z,73.70
2018-02-22T07:02:01.253Z,73.40
2018-02-22T07:04:33.745Z,73.60
2018-02-22T07:07:06.203Z,73.80
2018-02-22T07:09:38.681Z,73.90
2018-02-22T07:12:11.136Z,73.90
2018-02-22T07:14:43.612Z,74.00
2018-02-22T07:17:16.074Z,74.40
2018-02-22T07:19:48.561Z,74.00
2018-02-22T07:22:21.023Z,74.20
2018-02-22T07:24:53.503Z,73.80
2018-02-22T07:27:25.959Z,75.20
2018-02-22T07:29:58.444Z,75.00
2018-02-22T09:03:26.906Z,74.10
2018-02-22T09:05:59.369Z,73.90
2018-02-22T09:08:31.852Z,73.90
2018-02-22T09:11:04.315Z,73.90
2018-02-22T09:13:36.856Z,74.10
2018-02-22T11:02:47.517Z,71.80
2018-02-22T11:05:21.790Z,71.40
2018-02-22T11:07:54.283Z,71.40
2018-02-22T11:10:26.732Z,71.40
2018-02-22T11:12:59.213Z,71.30
2018-02-22T13:02:07.140Z,73.60
2018-02-22T13:04:40.367Z,74.00
2018-02-22T13:07:12.866Z,74.00
2018-02-22T13:09:45.321Z,74.50
2018-02-22T13:12:17.821Z,74.90
2018-02-22T13:14:50.276Z,74.90
2018-02-22T15:01:00.868Z,73.90
2018-02-22T15:03:33.347Z,73.90
2018-02-22T15:06:05.803Z,74.00
2018-02-22T15:08:38.288Z,73.90
2018-02-22T15:11:11.511Z,73.90
2018-02-22T15:13:44.001Z,73.80
2018-02-22T16:31:30.472Z,75.30
2018-02-22T16:34:02.956Z,75.40
2018-02-22T16:36:35.417Z,75.40
2018-02-22T16:39:07.903Z,75.40
2018-02-22T16:41:40.362Z,75.30
2018-02-22T16:44:12.852Z,75.00
2018-02-22T16:46:45.312Z,75.30
2018-02-22T16:49:17.801Z,75.10
2018-02-22T16:51:50.261Z,74.50
2018-02-22T16:54:22.757Z,74.50
2018-02-22T16:56:55.243Z,75.20
2018-02-22T16:59:27.712Z,75.60
2018-02-22T17:02:00.196Z,76.30
2018-02-22T17:04:32.652Z,76.80
2018-02-22T17:07:05.138Z,77.00
2018-02-22T17:09:37.595Z,77.00
2018-02-22T17:12:10.086Z,77.00
2018-02-22T17:14:42.544Z,77.40
2018-02-22T17:17:15.062Z,77.50
2018-02-22T17:19:47.479Z,77.40
2018-02-22T17:22:20.739Z,77.60
2018-02-22T17:24:53.198Z,77.50
2018-02-22T17:27:31.341Z,77.70
2018-02-22T17:30:09.677Z,77.80
2018-02-22T17:32:43.889Z,77.70
2018-02-22T17:35:27.187Z,77.70
2018-02-22T17:38:11.269Z,77.60
2018-02-22T17:41:05.263Z,77.50
2018-02-22T17:43:37.783Z,77.40
2018-02-22T17:46:10.273Z,77.30
2018-02-22T17:48:42.739Z,77.30
2018-02-22T17:51:15.324Z,77.20
2018-02-22T17:53:47.800Z,77.30
2018-02-22T17:56:20.273Z,77.30
2018-02-22T17:58:52.741Z,77.00
2018-02-22T18:01:25.227Z,76.70
2018-02-22T18:03:57.688Z,76.80
2018-02-22T18:06:30.169Z,76.80
2018-02-22T18:09:02.629Z,76.80
2018-02-22T18:11:35.125Z,76.80
2018-02-22T18:14:07.603Z,77.00
2018-02-22T18:16:40.056Z,77.10
2018-02-22T18:19:12.556Z,77.00
2018-02-22T18:21:46.409Z,77.30
2018-02-22T18:24:18.889Z,77.70
2018-02-22T18:26:53.811Z,77.40
2018-02-22T18:29:26.291Z,77.40
2018-02-22T18:31:58.772Z,78.30
2018-02-22T18:34:31.286Z,78.40
2018-02-22T18:37:03.725Z,78.20
2018-02-22T18:39:36.205Z,78.10
2018-02-22T18:42:14.240Z,77.80
2018-02-22T18:44:52.439Z,77.70
2018-02-22T18:47:24.896Z,77.60
2018-02-22T18:49:57.373Z,77.70
2018-02-22T18:52:29.857Z,77.70
2018-02-22T18:55:02.325Z,77.70
2018-02-22T18:57:34.804Z,77.70
2018-02-22T19:00:07.258Z,77.80
2018-02-22T19:02:39.748Z,77.80
2018-02-22T19:05:12.205Z,77.90
2018-02-22T19:07:44.696Z,78.00
2018-02-22T19:10:17.159Z,78.00
2018-02-22T19:12:49.644Z,78.00
2018-02-22T19:15:22.128Z,78.10
2018-02-22T19:17:54.596Z,78.20
2018-02-22T19:20:27.088Z,78.30
2018-02-22T19:22:59.547Z,78.20
2018-02-22T19:25:32.044Z,78.30
2018-02-22T19:28:04.524Z,78.40
2018-02-22T19:30:36.998Z,78.40
2018-02-22T19:33:09.596Z,78.60
2018-02-22T19:35:42.843Z,78.60
2018-02-22T19:38:15.548Z,78.60
2018-02-22T19:40:48.028Z,78.50
2018-02-22T19:43:20.644Z,78.30
2018-02-22T19:45:53.896Z,78.10
2018-02-22T19:48:26.356Z,78.10
2018-02-22T19:50:58.847Z,78.00
2018-02-22T19:53:31.312Z,78.00
2018-02-22T19:56:03.792Z,78.00
2018-02-22T19:58:36.248Z,77.90
2018-02-22T20:01:08.764Z,77.80
2018-02-22T20:03:41.297Z,77.80
2018-02-22T20:06:13.788Z,77.50
2018-02-22T20:08:46.240Z,77.50
2018-02-22T20:11:18.856Z,77.40
2018-02-22T20:13:51.344Z,77.30
2018-02-22T20:16:23.809Z,76.90
2018-02-22T20:18:56.287Z,76.90
2018-02-22T20:21:28.756Z,76.90
2018-02-22T20:24:01.318Z,76.80
2018-02-22T20:26:33.780Z,76.70
2018-02-22T20:29:06.293Z,76.80
2018-02-22T20:31:38.743Z,77.00
2018-02-22T20:34:11.231Z,76.70
2018-02-22T20:36:43.715Z,76.80
2018-02-22T20:39:16.209Z,76.60
2018-02-22T20:41:48.689Z,76.70
2018-02-22T20:44:21.178Z,76.70
2018-02-22T20:46:54.399Z,76.50
2018-02-22T20:49:26.896Z,76.50
2018-02-22T20:51:59.353Z,76.70
2018-02-22T20:54:31.828Z,76.40
2018-02-22T20:57:04.511Z,76.30
2018-02-22T20:59:36.967Z,76.30
2018-02-22T21:02:09.454Z,76.30
2018-02-22T21:04:41.912Z,76.20
2018-02-22T21:07:14.393Z,76.20
2018-02-22T21:09:46.884Z,76.20
2018-02-22T21:12:19.338Z,76.30
2018-02-22T21:14:51.833Z,76.20
2018-02-22T21:17:24.278Z,76.30
2018-02-22T21:19:56.760Z,76.70
2018-02-22T21:22:29.225Z,75.90
2018-02-22T21:25:02.476Z,75.30
2018-02-22T21:27:34.936Z,75.30
2018-02-22T21:30:07.420Z,74.70
2018-02-22T21:32:39.922Z,74.30
2018-02-22T21:35:12.372Z,74.20
2018-02-22T21:37:44.829Z,74.20
2018-02-22T21:40:17.315Z,74.10
2018-02-22T21:42:50.568Z,74.10
2018-02-22T21:45:23.821Z,74.20
2018-02-22T21:47:56.308Z,74.10
2018-02-22T21:50:28.761Z,74.10
2018-02-22T21:53:01.217Z,74.10
2018-02-22T21:55:33.711Z,74.10
2018-02-22T21:58:06.156Z,74.10
2018-02-22T22:00:38.646Z,74.20
2018-02-22T22:03:11.141Z,74.10
2018-02-22T22:05:43.621Z,74.00
2018-02-22T22:08:16.104Z,74.00
2018-02-22T22:10:48.602Z,73.90
2018-02-22T22:13:21.824Z,73.80
2018-02-22T22:15:54.318Z,73.80
2018-02-22T22:18:26.773Z,74.10
2018-02-22T22:20:59.261Z,74.10
2018-02-22T22:23:31.742Z,74.10
2018-02-22T22:26:04.198Z,74.10
2018-02-22T22:28:36.684Z,74.10
2018-02-22T22:31:09.147Z,74.10
2018-02-22T22:33:41.641Z,74.10
2018-02-22T22:36:14.099Z,74.10
2018-02-22T22:38:46.595Z,74.10
2018-02-22T22:41:19.050Z,74.10
2018-02-22T22:43:51.537Z,74.10
2018-02-22T22:46:23.998Z,74.00
2018-02-22T22:48:56.483Z,74.00
2018-02-22T22:51:28.935Z,74.00
2018-02-22T22:54:01.430Z,74.00
2018-02-22T22:56:33.904Z,74.00
2018-02-22T22:59:06.395Z,74.00
2018-02-22T23:01:38.858Z,74.00
2018-02-22T23:04:11.341Z,74.00
2018-02-22T23:06:43.804Z,74.00
2018-02-22T23:09:16.294Z,74.00
2018-02-22T23:11:48.781Z,73.90
2018-02-22T23:14:21.234Z,73.90
2018-02-22T23:16:53.718Z,73.90
2018-02-22T23:19:26.180Z,73.90
2018-02-22T23:21:58.668Z,73.90
2018-02-22T23:24:31.160Z,73.90
2018-02-22T23:27:03.616Z,73.90
2018-02-22T23:29:36.085Z,73.90
2018-02-22T23:32:08.559Z,73.90
2018-02-22T23:34:41.020Z,73.90
2018-02-22T23:37:13.508Z,73.90
2018-02-22T23:39:45.962Z,73.90
2018-02-22T23:42:18.457Z,73.90
2018-02-22T23:44:50.920Z,73.80
2018-02-22T23:47:23.411Z,73.70
2018-02-22T23:49:55.885Z,73.60
2018-02-22T23:52:28.369Z,73.70
2018-02-22T23:55:00.837Z,73.80
2018-02-22T23:57:33.333Z,73.80
